Time;durP1;ratioP1;P1;durP2;ratioP2;P2;SDS_P1;SDS_P2;PMS_P1;PMS_P2;Temp;Humidity;BMP_temperature;BMP_pressure;BME280_temperature;BME280_humidity;BME280_pressure;Samples;Min_cycle;Max_cycle;Signal;HPM_P1;HPM_P2
2023/08/27 00:00:44;;;;;;;5.37;3.17;;;;;;;;;;5069211;28;20188;-87
2023/08/27 00:03:10;;;;;;;5.57;2.90;;;;;;;;;;5069868;28;21221;-87
2023/08/27 00:05:43;;;;;;;3.40;3.10;;;;;;;;;;5068053;28;20228;-89
2023/08/27 00:08:09;;;;;;;3.53;3.23;;;;;;;;;;5068214;28;20196;-88
2023/08/27 00:10:35;;;;;;;3.47;3.17;;;;;;;;;;5070770;28;20265;-90
2023/08/27 00:13:01;;;;;;;4.10;3.37;;;;;;;;;;5071006;28;20583;-88
2023/08/27 00:15:27;;;;;;;3.73;3.07;;;;;;;;;;5070300;28;20220;-89
2023/08/27 00:17:53;;;;;;;3.20;3.00;;;;;;;;;;5072072;28;20248;-88
2023/08/27 00:20:19;;;;;;;6.10;2.87;;;;;;;;;;5072027;28;20215;-88
2023/08/27 00:22:45;;;;;;;3.97;3.67;;;;;;;;;;5075735;28;20283;-88
2023/08/27 00:25:11;;;;;;;3.03;2.73;;;;;;;;;;5072135;28;20242;-88
2023/08/27 00:27:37;;;;;;;3.93;3.03;;;;;;;;;;5069188;28;20200;-88
2023/08/27 00:30:05;;;;;;;3.73;3.37;;;;;;;;;;5069297;28;20202;-88
2023/08/27 00:32:33;;;;;;;3.30;3.00;;;;;;;;;;5077438;28;20192;-87
2023/08/27 00:34:59;;;;;;;2.93;2.73;;;;;;;;;;5085530;28;20176;-87
2023/08/27 00:37:25;;;;;;;3.83;2.70;;;;;;;;;;5088847;28;20161;-87
2023/08/27 00:39:51;;;;;;;3.03;2.70;;;;;;;;;;5087086;28;20219;-87
2023/08/27 00:42:17;;;;;;;4.30;3.17;;;;;;;;;;5088696;28;20165;-87
2023/08/27 00:44:43;;;;;;;3.20;2.90;;;;;;;;;;5088108;28;20526;-87
2023/08/27 00:47:11;;;;;;;4.40;3.13;;;;;;;;;;5087484;28;20196;-87
2023/08/27 00:49:38;;;;;;;5.83;3.40;;;;;;;;;;5086969;28;20165;-86
2023/08/27 00:52:05;;;;;;;2.80;2.50;;;;;;;;;;5071312;28;20190;-87
2023/08/27 00:54:32;;;;;;;3.97;2.57;;;;;;;;;;5087148;28;20370;-87
2023/08/27 00:56:58;;;;;;;5.13;3.13;;;;;;;;;;5086951;28;20186;-88
2023/08/27 00:59:24;;;;;;;4.83;3.00;;;;;;;;;;5086103;28;20188;-87
2023/08/27 01:01:51;;;;;;;3.27;2.80;;;;;;;;;;5083282;28;20173;-85
2023/08/27 01:04:17;;;;;;;3.40;2.77;;;;;;;;;;5074857;28;20259;-86
2023/08/27 01:06:44;;;;;;;4.60;2.97;;;;;;;;;;5070457;28;20210;-86
2023/08/27 01:09:12;;;;;;;4.37;3.17;;;;;;;;;;5064296;28;20175;-87
2023/08/27 01:11:54;;;;;;;3.00;2.60;;;;;;;;;;5067262;28;20224;-87
2023/08/27 01:14:22;;;;;;;3.37;2.90;;;;;;;;;;5068352;28;20267;-87
2023/08/27 01:16:51;;;;;;;4.67;3.37;;;;;;;;;;5073483;28;20222;-88
2023/08/27 01:19:17;;;;;;;3.57;2.87;;;;;;;;;;5070788;28;20169;-88
2023/08/27 01:21:44;;;;;;;2.87;2.67;;;;;;;;;;5067212;28;20164;-88
2023/08/27 01:24:10;;;;;;;3.70;3.17;;;;;;;;;;5068605;28;20211;-87
2023/08/27 01:26:45;;;;;;;3.43;3.13;;;;;;;;;;5067238;28;20265;-88
2023/08/27 01:29:20;;;;;;;5.67;3.47;;;;;;;;;;5066489;28;20265;-87
2023/08/27 01:31:52;;;;;;;5.07;3.03;;;;;;;;;;5067884;28;20203;-87
2023/08/27 01:34:19;;;;;;;3.37;3.07;;;;;;;;;;5066245;28;20271;-87
2023/08/27 01:36:46;;;;;;;3.23;2.93;;;;;;;;;;5066669;28;20181;-88
2023/08/27 01:39:13;;;;;;;5.10;2.87;;;;;;;;;;5050096;28;20632;-87
2023/08/27 01:41:39;;;;;;;2.87;2.67;;;;;;;;;;5071446;28;20183;-87
2023/08/27 01:44:06;;;;;;;3.60;3.03;;;;;;;;;;5069375;28;20207;-87
2023/08/27 01:46:32;;;;;;;4.20;3.30;;;;;;;;;;5068499;28;20180;-88
2023/08/27 01:48:58;;;;;;;6.80;3.00;;;;;;;;;;5067508;28;20476;-87
2023/08/27 01:51:24;;;;;;;5.77;3.30;;;;;;;;;;5070966;28;20191;-86
2023/08/27 01:53:50;;;;;;;3.40;3.10;;;;;;;;;;5070918;28;20268;-86
2023/08/27 01:56:16;;;;;;;2.97;2.73;;;;;;;;;;5071938;28;20275;-86
2023/08/27 01:58:42;;;;;;;4.50;3.30;;;;;;;;;;5052959;28;20252;-86
2023/08/27 02:01:08;;;;;;;4.20;3.30;;;;;;;;;;5065602;28;20238;-87
2023/08/27 02:03:34;;;;;;;3.50;3.20;;;;;;;;;;5067852;28;20546;-86
2023/08/27 02:06:00;;;;;;;3.70;3.10;;;;;;;;;;5068023;28;20715;-86
2023/08/27 02:08:26;;;;;;;3.37;3.07;;;;;;;;;;5069855;28;20632;-86
2023/08/27 02:10:52;;;;;;;7.37;3.57;;;;;;;;;;5072264;28;20172;-87
2023/08/27 02:13:18;;;;;;;3.60;3.30;;;;;;;;;;5070651;28;20188;-87
2023/08/27 02:15:44;;;;;;;3.70;3.37;;;;;;;;;;5068960;28;20572;-85
2023/08/27 02:18:10;;;;;;;3.47;3.17;;;;;;;;;;5069520;28;20184;-87
2023/08/27 02:20:36;;;;;;;3.50;3.20;;;;;;;;;;5070453;28;20180;-86
2023/08/27 02:23:03;;;;;;;3.57;3.00;;;;;;;;;;5069766;28;20364;-87
2023/08/27 02:25:29;;;;;;;6.00;2.93;;;;;;;;;;5065744;28;20177;-89
2023/08/27 02:27:55;;;;;;;4.30;3.20;;;;;;;;;;5068389;28;20208;-88
2023/08/27 02:30:21;;;;;;;3.77;3.30;;;;;;;;;;5067469;28;20177;-88
2023/08/27 02:32:47;;;;;;;3.57;2.93;;;;;;;;;;5072078;28;20551;-89
2023/08/27 02:35:13;;;;;;;3.03;2.70;;;;;;;;;;5075296;28;20275;-88
2023/08/27 02:37:39;;;;;;;3.40;3.10;;;;;;;;;;5076337;28;20184;-88
2023/08/27 02:40:06;;;;;;;4.23;3.20;;;;;;;;;;5073550;28;20689;-88
2023/08/27 02:42:32;;;;;;;2.90;2.60;;;;;;;;;;5070653;28;20196;-88
2023/08/27 02:44:58;;;;;;;3.73;3.40;;;;;;;;;;5071857;28;20238;-88
2023/08/27 02:47:24;;;;;;;4.20;2.90;;;;;;;;;;5070360;28;20183;-87
2023/08/27 02:49:50;;;;;;;3.80;2.80;;;;;;;;;;5074911;28;20186;-88
2023/08/27 02:52:17;;;;;;;3.40;3.10;;;;;;;;;;5071063;28;20269;-88
2023/08/27 02:54:43;;;;;;;6.60;2.90;;;;;;;;;;5069921;28;20515;-85
2023/08/27 02:57:09;;;;;;;4.70;2.70;;;;;;;;;;5068356;28;20317;-85
2023/08/27 02:59:35;;;;;;;3.43;3.13;;;;;;;;;;5070034;28;20274;-87
2023/08/27 03:02:01;;;;;;;3.33;3.03;;;;;;;;;;5069612;28;20262;-86
2023/08/27 03:04:27;;;;;;;3.90;3.53;;;;;;;;;;5068095;28;20235;-86
2023/08/27 03:06:53;;;;;;;3.43;3.23;;;;;;;;;;5067809;28;20185;-85
2023/08/27 03:09:19;;;;;;;6.13;3.57;;;;;;;;;;5073249;28;20290;-85
2023/08/27 03:11:45;;;;;;;3.50;3.00;;;;;;;;;;5071072;28;20198;-87
2023/08/27 03:14:11;;;;;;;3.73;2.97;;;;;;;;;;5070055;28;20719;-86
2023/08/27 03:16:37;;;;;;;6.10;4.57;;;;;;;;;;5065233;28;20246;-86
2023/08/27 03:19:03;;;;;;;4.97;3.93;;;;;;;;;;5069182;28;20186;-85
2023/08/27 03:21:29;;;;;;;6.00;2.93;;;;;;;;;;5069866;28;20199;-85
2023/08/27 03:23:55;;;;;;;8.20;3.40;;;;;;;;;;5069825;28;20281;-86
2023/08/27 03:26:21;;;;;;;3.47;3.07;;;;;;;;;;5072260;28;20545;-87
2023/08/27 03:28:47;;;;;;;3.40;3.10;;;;;;;;;;5071244;28;20218;-86
2023/08/27 03:31:13;;;;;;;3.57;3.27;;;;;;;;;;5069874;28;20184;-86
2023/08/27 03:33:39;;;;;;;7.37;3.47;;;;;;;;;;5070048;28;20484;-87
2023/08/27 03:36:05;;;;;;;4.13;3.17;;;;;;;;;;5070234;28;20187;-88
2023/08/27 03:38:32;;;;;;;3.70;2.97;;;;;;;;;;5070411;28;20278;-87
2023/08/27 03:40:58;;;;;;;4.07;3.37;;;;;;;;;;5071071;28;20343;-88
2023/08/27 03:43:24;;;;;;;3.30;3.10;;;;;;;;;;5070885;28;20235;-89
2023/08/27 03:45:50;;;;;;;6.77;3.13;;;;;;;;;;5070513;28;20176;-88
2023/08/27 03:48:16;;;;;;;3.77;3.10;;;;;;;;;;5068236;28;20793;-88
2023/08/27 03:50:42;;;;;;;4.27;3.27;;;;;;;;;;5069522;28;20595;-89
2023/08/27 03:53:10;;;;;;;3.40;3.03;;;;;;;;;;5070264;28;20181;-89
2023/08/27 03:55:39;;;;;;;4.03;3.00;;;;;;;;;;5068086;28;20230;-88
2023/08/27 03:58:06;;;;;;;3.50;3.20;;;;;;;;;;5071083;28;20649;-88
2023/08/27 04:00:33;;;;;;;3.47;3.17;;;;;;;;;;5067562;28;20204;-89
2023/08/27 04:02:59;;;;;;;2.67;2.47;;;;;;;;;;5070489;28;20266;-88
2023/08/27 04:05:25;;;;;;;3.57;3.27;;;;;;;;;;5067566;28;20236;-88
2023/08/27 04:07:51;;;;;;;3.33;2.90;;;;;;;;;;5069047;28;20186;-88
2023/08/27 04:10:17;;;;;;;4.93;3.43;;;;;;;;;;5052536;28;20175;-88
2023/08/27 04:12:43;;;;;;;3.30;2.90;;;;;;;;;;5050597;28;20190;-89
2023/08/27 04:15:09;;;;;;;6.97;3.27;;;;;;;;;;5066716;28;20640;-88
2023/08/27 04:17:36;;;;;;;3.10;2.80;;;;;;;;;;5070151;28;20192;-88
2023/08/27 04:20:02;;;;;;;3.10;2.90;;;;;;;;;;5069028;28;20169;-88
2023/08/27 04:22:28;;;;;;;4.77;2.87;;;;;;;;;;5069712;28;20198;-88
2023/08/27 04:24:55;;;;;;;3.57;3.27;;;;;;;;;;5065593;28;20168;-88
2023/08/27 04:27:21;;;;;;;3.43;2.60;;;;;;;;;;5068071;28;20183;-88
2023/08/27 04:29:47;;;;;;;3.43;2.37;;;;;;;;;;5068040;28;20168;-87
2023/08/27 04:32:13;;;;;;;2.93;2.63;;;;;;;;;;5067809;28;20193;-88
2023/08/27 04:34:39;;;;;;;4.00;3.03;;;;;;;;;;5069434;28;20174;-88
2023/08/27 04:37:05;;;;;;;2.90;2.70;;;;;;;;;;5069221;28;20569;-87
2023/08/27 04:39:31;;;;;;;4.07;2.77;;;;;;;;;;5068070;28;20183;-88
2023/08/27 04:41:58;;;;;;;3.97;3.30;;;;;;;;;;5069092;28;20185;-88
2023/08/27 04:44:26;;;;;;;2.70;2.50;;;;;;;;;;5071454;28;20186;-86
2023/08/27 04:46:52;;;;;;;4.63;2.73;;;;;;;;;;5065331;28;20170;-87
2023/08/27 04:49:18;;;;;;;2.90;2.70;;;;;;;;;;5066351;28;20639;-86
2023/08/27 04:51:44;;;;;;;3.33;3.03;;;;;;;;;;5065066;28;20262;-85
2023/08/27 04:54:10;;;;;;;4.00;2.90;;;;;;;;;;5062693;28;20273;-85
2023/08/27 04:56:36;;;;;;;2.83;2.63;;;;;;;;;;5069979;28;20163;-88
2023/08/27 04:59:02;;;;;;;3.30;3.10;;;;;;;;;;5066643;28;20183;-87
2023/08/27 05:01:28;;;;;;;5.80;3.00;;;;;;;;;;5062929;28;20431;-87
2023/08/27 05:03:54;;;;;;;4.33;2.90;;;;;;;;;;5067388;28;20530;-86
2023/08/27 05:06:21;;;;;;;3.55;3.10;;;;;;;;;;5066933;28;20481;-85
2023/08/27 05:08:47;;;;;;;3.40;3.10;;;;;;;;;;5066389;28;20264;-86
2023/08/27 05:11:13;;;;;;;4.10;2.77;;;;;;;;;;5065622;28;20208;-86
2023/08/27 05:13:39;;;;;;;2.73;2.53;;;;;;;;;;5066538;28;20524;-86
2023/08/27 05:16:05;;;;;;;4.70;2.60;;;;;;;;;;5066387;28;20176;-85
2023/08/27 05:18:31;;;;;;;6.77;3.40;;;;;;;;;;5064568;28;20192;-86
2023/08/27 05:20:57;;;;;;;3.90;2.70;;;;;;;;;;5069608;28;20180;-88
2023/08/27 05:23:23;;;;;;;4.17;2.67;;;;;;;;;;5067794;28;20282;-87
2023/08/27 05:25:49;;;;;;;3.13;2.83;;;;;;;;;;5066932;28;20528;-86
2023/08/27 05:28:15;;;;;;;3.20;2.90;;;;;;;;;;5068054;28;20212;-85
2023/08/27 05:30:42;;;;;;;4.33;2.97;;;;;;;;;;5068090;28;20191;-85
2023/08/27 05:33:08;;;;;;;3.40;2.87;;;;;;;;;;5067178;28;20272;-86
2023/08/27 05:35:34;;;;;;;3.30;2.50;;;;;;;;;;5050681;28;20263;-86
2023/08/27 05:38:00;;;;;;;2.93;2.67;;;;;;;;;;5069889;28;20272;-85
2023/08/27 05:40:26;;;;;;;3.67;2.70;;;;;;;;;;5066872;28;20211;-85
2023/08/27 05:42:52;;;;;;;2.83;2.53;;;;;;;;;;5066278;28;20228;-86
2023/08/27 05:45:18;;;;;;;3.57;2.90;;;;;;;;;;5065202;28;20279;-86
2023/08/27 05:47:44;;;;;;;3.87;2.80;;;;;;;;;;5067413;28;20211;-87
2023/08/27 05:50:10;;;;;;;3.40;3.10;;;;;;;;;;5067536;28;20207;-86
2023/08/27 05:52:36;;;;;;;6.00;3.17;;;;;;;;;;5067234;28;20184;-88
2023/08/27 05:55:02;;;;;;;3.30;2.70;;;;;;;;;;5050788;28;20263;-87
2023/08/27 05:57:28;;;;;;;3.70;3.23;;;;;;;;;;5067259;28;20192;-88
2023/08/27 05:59:54;;;;;;;4.10;3.03;;;;;;;;;;5068186;28;20181;-88
2023/08/27 06:02:20;;;;;;;5.33;2.80;;;;;;;;;;5051833;28;20179;-87
2023/08/27 06:04:46;;;;;;;3.57;3.27;;;;;;;;;;5066783;28;20230;-87
2023/08/27 06:07:12;;;;;;;3.20;2.90;;;;;;;;;;5065258;28;20177;-87
2023/08/27 06:09:38;;;;;;;3.33;3.03;;;;;;;;;;5064821;28;20539;-88
2023/08/27 06:12:08;;;;;;;5.63;3.03;;;;;;;;;;5063702;28;20275;-88
2023/08/27 06:14:34;;;;;;;4.47;3.30;;;;;;;;;;5067001;28;20254;-86
2023/08/27 06:17:00;;;;;;;3.83;2.60;;;;;;;;;;5065805;28;20196;-86
2023/08/27 06:19:26;;;;;;;3.90;3.23;;;;;;;;;;5068477;28;20226;-88
2023/08/27 06:21:52;;;;;;;3.27;2.97;;;;;;;;;;5054489;28;20177;-85
2023/08/27 06:24:18;;;;;;;5.03;3.20;;;;;;;;;;5064369;28;20205;-86
2023/08/27 06:26:44;;;;;;;5.20;2.97;;;;;;;;;;5067958;28;20852;-86
2023/08/27 06:29:10;;;;;;;4.43;3.10;;;;;;;;;;5066130;28;20234;-86
2023/08/27 06:31:36;;;;;;;5.57;3.20;;;;;;;;;;5068411;28;20189;-83
2023/08/27 06:34:02;;;;;;;3.77;3.47;;;;;;;;;;5069826;28;20189;-82
2023/08/27 06:36:28;;;;;;;3.77;3.27;;;;;;;;;;5071165;28;20184;-83
2023/08/27 06:38:54;;;;;;;3.63;3.33;;;;;;;;;;5071257;28;20172;-84
2023/08/27 06:41:20;;;;;;;4.40;3.40;;;;;;;;;;5065701;28;20192;-83
2023/08/27 06:43:46;;;;;;;6.83;3.80;;;;;;;;;;5071135;28;20683;-84
2023/08/27 06:46:13;;;;;;;3.40;3.07;;;;;;;;;;5061688;28;20169;-85
2023/08/27 06:48:39;;;;;;;4.87;2.53;;;;;;;;;;5061365;28;20181;-87
2023/08/27 06:51:05;;;;;;;3.30;3.00;;;;;;;;;;5061540;28;20210;-86
2023/08/27 06:53:31;;;;;;;3.67;2.90;;;;;;;;;;5044319;28;20215;-87
2023/08/27 06:55:57;;;;;;;5.73;3.00;;;;;;;;;;5066312;28;20612;-85
2023/08/27 06:58:24;;;;;;;7.37;3.50;;;;;;;;;;5072641;28;20188;-86
2023/08/27 07:00:50;;;;;;;4.57;3.30;;;;;;;;;;5068717;28;20537;-86
2023/08/27 07:03:16;;;;;;;3.23;2.93;;;;;;;;;;5068503;28;20220;-87
2023/08/27 07:05:43;;;;;;;3.97;3.20;;;;;;;;;;5072300;28;20237;-85
2023/08/27 07:08:09;;;;;;;4.13;2.63;;;;;;;;;;5070087;28;20234;-85
2023/08/27 07:10:35;;;;;;;9.20;3.33;;;;;;;;;;5070078;28;20668;-87
2023/08/27 07:13:02;;;;;;;3.30;3.00;;;;;;;;;;5073776;28;20293;-85
2023/08/27 07:15:28;;;;;;;4.33;2.90;;;;;;;;;;5068422;28;20184;-86
2023/08/27 07:17:54;;;;;;;5.63;3.20;;;;;;;;;;5070151;28;20187;-84
2023/08/27 07:20:20;;;;;;;3.40;2.97;;;;;;;;;;5064769;28;20632;-83
2023/08/27 07:22:46;;;;;;;5.77;3.40;;;;;;;;;;5072310;28;20335;-83
2023/08/27 07:25:12;;;;;;;4.47;3.37;;;;;;;;;;5061361;28;20180;-85
2023/08/27 07:27:38;;;;;;;4.07;3.33;;;;;;;;;;5069946;28;20608;-85
2023/08/27 07:30:04;;;;;;;3.60;3.20;;;;;;;;;;5068937;28;20611;-84
2023/08/27 07:32:31;;;;;;;3.57;3.03;;;;;;;;;;5072295;28;20176;-85
2023/08/27 07:34:57;;;;;;;3.30;3.00;;;;;;;;;;5065900;28;20568;-86
2023/08/27 07:37:23;;;;;;;5.07;3.47;;;;;;;;;;5067868;28;20172;-80
2023/08/27 07:39:49;;;;;;;4.77;3.23;;;;;;;;;;5066457;28;20352;-85
2023/08/27 07:42:15;;;;;;;4.27;3.37;;;;;;;;;;5063345;28;20272;-83
2023/08/27 07:44:41;;;;;;;4.57;3.43;;;;;;;;;;5062305;28;20686;-82
2023/08/27 07:47:07;;;;;;;4.40;3.53;;;;;;;;;;5064303;28;20181;-84
2023/08/27 07:49:33;;;;;;;4.53;3.63;;;;;;;;;;5065739;28;20165;-85
2023/08/27 07:51:59;;;;;;;3.43;3.13;;;;;;;;;;5069019;28;20188;-86
2023/08/27 07:54:25;;;;;;;3.77;3.30;;;;;;;;;;5063872;28;20168;-86
2023/08/27 07:56:51;;;;;;;5.70;3.63;;;;;;;;;;5068533;28;20191;-86
2023/08/27 07:59:17;;;;;;;5.43;3.30;;;;;;;;;;5051096;28;20172;-86
2023/08/27 08:01:43;;;;;;;5.47;3.60;;;;;;;;;;5067866;28;20664;-85
2023/08/27 08:04:10;;;;;;;4.60;3.07;;;;;;;;;;5055521;28;20216;-89
2023/08/27 08:06:36;;;;;;;3.43;3.10;;;;;;;;;;5067754;28;21578;-89
2023/08/27 08:09:02;;;;;;;5.03;3.37;;;;;;;;;;5070816;28;20179;-88
2023/08/27 08:11:28;;;;;;;3.83;3.10;;;;;;;;;;5059206;28;20183;-87
2023/08/27 08:13:54;;;;;;;3.80;3.20;;;;;;;;;;5068551;28;20177;-87
2023/08/27 08:16:23;;;;;;;4.17;2.83;;;;;;;;;;5060160;28;20620;-87
2023/08/27 08:18:49;;;;;;;5.27;4.23;;;;;;;;;;5042010;28;20191;-84
2023/08/27 08:21:15;;;;;;;5.27;4.77;;;;;;;;;;5064565;28;20187;-86
2023/08/27 08:23:41;;;;;;;4.93;3.60;;;;;;;;;;5061820;28;20211;-84
2023/08/27 08:26:07;;;;;;;6.27;4.63;;;;;;;;;;5064864;28;20674;-85
2023/08/27 08:28:34;;;;;;;3.93;3.30;;;;;;;;;;5064438;28;20208;-84
2023/08/27 08:31:00;;;;;;;5.27;3.27;;;;;;;;;;5063360;28;20672;-83
2023/08/27 08:33:26;;;;;;;2.77;2.57;;;;;;;;;;5062518;28;20180;-86
2023/08/27 08:35:52;;;;;;;4.40;2.83;;;;;;;;;;5060895;28;20253;-84
2023/08/27 08:38:18;;;;;;;2.60;2.40;;;;;;;;;;5062037;28;20184;-85
2023/08/27 08:40:46;;;;;;;2.60;2.37;;;;;;;;;;5045638;28;20624;-85
2023/08/27 08:43:26;;;;;;;2.50;2.30;;;;;;;;;;5061025;28;20215;-86
2023/08/27 08:46:00;;;;;;;4.63;2.40;;;;;;;;;;5048240;28;20176;-87
2023/08/27 08:48:27;;;;;;;3.63;3.07;;;;;;;;;;5061900;28;20215;-88
2023/08/27 08:50:54;;;;;;;2.50;2.30;;;;;;;;;;5065203;28;20271;-87
2023/08/27 08:53:22;;;;;;;1.97;1.87;;;;;;;;;;5063466;28;20689;-86
2023/08/27 08:55:50;;;;;;;2.80;2.23;;;;;;;;;;5062211;28;20177;-87
2023/08/27 08:58:17;;;;;;;2.87;2.57;;;;;;;;;;5062909;28;20204;-87
2023/08/27 09:00:43;;;;;;;3.53;2.23;;;;;;;;;;5043227;28;20649;-86
2023/08/27 09:03:11;;;;;;;2.40;2.20;;;;;;;;;;5065481;28;20242;-85
2023/08/27 09:05:38;;;;;;;2.60;2.40;;;;;;;;;;5066154;28;20380;-83
2023/08/27 09:08:04;;;;;;;2.73;1.83;;;;;;;;;;5066936;28;20598;-84
2023/08/27 09:10:31;;;;;;;1.90;1.70;;;;;;;;;;5061711;28;20692;-80
2023/08/27 09:12:57;;;;;;;2.33;1.97;;;;;;;;;;5061902;28;20186;-80
2023/08/27 09:15:24;;;;;;;3.73;2.10;;;;;;;;;;5055715;28;20188;-78
2023/08/27 09:17:50;;;;;;;3.10;2.10;;;;;;;;;;5068702;28;20180;-78
2023/08/27 09:20:17;;;;;;;3.57;2.40;;;;;;;;;;5059527;28;20219;-79
2023/08/27 09:22:43;;;;;;;3.03;2.20;;;;;;;;;;5061721;28;20296;-81
2023/08/27 09:25:10;;;;;;;2.23;2.03;;;;;;;;;;5058723;28;20308;-87
2023/08/27 09:27:36;;;;;;;4.40;2.67;;;;;;;;;;5068536;28;20705;-83
2023/08/27 09:30:06;;;;;;;2.67;2.13;;;;;;;;;;5067640;28;20211;-84
2023/08/27 09:32:32;;;;;;;2.13;1.83;;;;;;;;;;5066295;28;20180;-86
2023/08/27 09:34:58;;;;;;;2.30;2.10;;;;;;;;;;5063280;28;20200;-89
2023/08/27 09:37:26;;;;;;;2.43;2.03;;;;;;;;;;5063604;28;20229;-89
2023/08/27 09:39:52;;;;;;;1.80;1.70;;;;;;;;;;5067792;28;20708;-86
2023/08/27 09:42:18;;;;;;;1.93;1.67;;;;;;;;;;5065881;28;20184;-87
2023/08/27 09:44:51;;;;;;;1.87;1.60;;;;;;;;;;5072277;28;20224;-88
2023/08/27 09:47:17;;;;;;;2.43;1.93;;;;;;;;;;5045688;28;20180;-88
2023/08/27 09:49:44;;;;;;;2.83;1.80;;;;;;;;;;5071362;28;20197;-86
2023/08/27 09:52:10;;;;;;;3.83;2.50;;;;;;;;;;5068725;28;20187;-85
2023/08/27 09:54:37;;;;;;;2.67;2.03;;;;;;;;;;5072370;28;20286;-85
2023/08/27 09:57:03;;;;;;;3.80;1.90;;;;;;;;;;5067733;28;20186;-84
2023/08/27 09:59:30;;;;;;;3.30;1.83;;;;;;;;;;5061449;28;20720;-83
2023/08/27 10:01:56;;;;;;;1.77;1.63;;;;;;;;;;5051307;28;20180;-82
2023/08/27 10:04:22;;;;;;;2.57;1.87;;;;;;;;;;5076143;28;20203;-84
2023/08/27 10:06:48;;;;;;;4.57;2.00;;;;;;;;;;5056923;28;20660;-84
2023/08/27 10:09:15;;;;;;;3.73;1.97;;;;;;;;;;5073613;28;20172;-86
2023/08/27 10:11:43;;;;;;;2.73;1.90;;;;;;;;;;5077429;28;20183;-85
2023/08/27 10:14:10;;;;;;;3.20;1.80;;;;;;;;;;5078665;28;20189;-87
2023/08/27 10:16:36;;;;;;;3.00;1.93;;;;;;;;;;5074522;28;20208;-86
2023/08/27 10:19:04;;;;;;;2.33;1.70;;;;;;;;;;5073985;28;20176;-88
2023/08/27 10:21:30;;;;;;;2.47;2.20;;;;;;;;;;5073407;28;20789;-84
2023/08/27 10:23:57;;;;;;;1.97;1.73;;;;;;;;;;5071956;28;20195;-85
2023/08/27 10:26:23;;;;;;;2.23;2.03;;;;;;;;;;5072550;28;20174;-89
2023/08/27 10:28:50;;;;;;;2.63;1.70;;;;;;;;;;5070910;28;20666;-86
2023/08/27 10:31:16;;;;;;;2.70;2.07;;;;;;;;;;5070212;28;20177;-89
2023/08/27 10:33:42;;;;;;;2.93;1.93;;;;;;;;;;5074204;28;20483;-84
2023/08/27 10:36:11;;;;;;;2.00;1.70;;;;;;;;;;5073881;28;20656;-89
2023/08/27 10:38:38;;;;;;;2.40;1.73;;;;;;;;;;5049825;28;20187;-88
2023/08/27 10:41:06;;;;;;;1.93;1.83;;;;;;;;;;5071567;28;20192;-88
2023/08/27 10:43:36;;;;;;;2.77;1.90;;;;;;;;;;5047037;28;20204;-87
2023/08/27 10:46:10;;;;;;;2.70;2.10;;;;;;;;;;5069365;28;20184;-84
2023/08/27 10:48:37;;;;;;;3.57;2.50;;;;;;;;;;5072425;28;20304;-79
2023/08/27 10:51:13;;;;;;;3.30;2.27;;;;;;;;;;5077106;28;20222;-80
2023/08/27 10:53:51;;;;;;;2.00;1.90;;;;;;;;;;5069997;28;20473;-80
2023/08/27 10:56:36;;;;;;;1.70;1.60;;;;;;;;;;5053991;28;20196;-78
2023/08/27 10:59:10;;;;;;;3.83;2.00;;;;;;;;;;5072703;28;20176;-85
2023/08/27 11:01:59;;;;;;;2.30;2.10;;;;;;;;;;5047793;28;20188;-85
2023/08/27 11:04:42;;;;;;;3.93;1.87;;;;;;;;;;5069801;28;20300;-86
2023/08/27 11:07:11;;;;;;;2.07;1.87;;;;;;;;;;5062399;28;20270;-85
2023/08/27 11:10:04;;;;;;;2.17;1.90;;;;;;;;;;5072720;28;20175;-86
2023/08/27 11:12:36;;;;;;;3.13;1.90;;;;;;;;;;5067026;28;20193;-87
2023/08/27 11:15:11;;;;;;;1.80;1.60;;;;;;;;;;5075059;28;20178;-86
2023/08/27 11:17:38;;;;;;;3.80;1.90;;;;;;;;;;5069436;28;20176;-86
2023/08/27 11:20:24;;;;;;;2.87;2.33;;;;;;;;;;5072342;28;20212;-87
2023/08/27 11:22:56;;;;;;;3.13;2.23;;;;;;;;;;5073655;28;20272;-87
2023/08/27 11:25:24;;;;;;;2.87;1.70;;;;;;;;;;5073099;28;20173;-86
2023/08/27 11:27:51;;;;;;;2.63;2.00;;;;;;;;;;5075115;28;20254;-86
2023/08/27 11:30:17;;;;;;;2.00;1.80;;;;;;;;;;5074996;28;20608;-85
2023/08/27 11:32:43;;;;;;;1.80;1.70;;;;;;;;;;5074762;28;20206;-84
2023/08/27 11:35:14;;;;;;;2.73;1.93;;;;;;;;;;5074971;28;20217;-87
2023/08/27 11:37:40;;;;;;;2.67;1.90;;;;;;;;;;5072221;28;20606;-84
2023/08/27 11:40:15;;;;;;;2.60;1.87;;;;;;;;;;5074570;28;20174;-83
2023/08/27 11:42:50;;;;;;;2.37;2.07;;;;;;;;;;5073886;28;20178;-84
2023/08/27 11:45:17;;;;;;;5.17;1.90;;;;;;;;;;5068847;28;20168;-83
2023/08/27 11:47:43;;;;;;;2.27;1.83;;;;;;;;;;5066147;28;20183;-82
2023/08/27 11:50:10;;;;;;;3.73;1.70;;;;;;;;;;5061371;28;20214;-83
2023/08/27 11:52:39;;;;;;;4.60;1.90;;;;;;;;;;5061050;28;20489;-85
2023/08/27 11:55:07;;;;;;;2.80;2.03;;;;;;;;;;5047222;28;20219;-84
2023/08/27 11:57:34;;;;;;;3.07;2.13;;;;;;;;;;5068810;28;20173;-86
2023/08/27 12:00:07;;;;;;;2.63;2.07;;;;;;;;;;5066616;28;20290;-87
2023/08/27 12:02:34;;;;;;;1.97;1.73;;;;;;;;;;5067119;28;20217;-87
2023/08/27 12:05:00;;;;;;;2.20;1.67;;;;;;;;;;5057446;28;20211;-86
2023/08/27 12:07:29;;;;;;;3.10;2.10;;;;;;;;;;5069327;28;20193;-88
2023/08/27 12:09:55;;;;;;;4.77;1.90;;;;;;;;;;5070468;28;20168;-85
2023/08/27 12:12:25;;;;;;;2.13;1.73;;;;;;;;;;5072874;28;20175;-88
2023/08/27 12:14:52;;;;;;;2.00;1.80;;;;;;;;;;5072513;28;20191;-87
2023/08/27 12:17:21;;;;;;;2.00;1.70;;;;;;;;;;5067720;28;20696;-87
2023/08/27 12:19:47;;;;;;;2.10;1.53;;;;;;;;;;5063453;28;20196;-88
2023/08/27 12:22:19;;;;;;;2.10;1.90;;;;;;;;;;5073917;28;20179;-87
2023/08/27 12:24:45;;;;;;;2.47;1.83;;;;;;;;;;5072712;28;20192;-86
2023/08/27 12:27:15;;;;;;;1.90;1.70;;;;;;;;;;5072108;28;20186;-87
2023/08/27 12:29:44;;;;;;;2.03;1.70;;;;;;;;;;5071562;28;20222;-87
2023/08/27 12:32:12;;;;;;;3.77;1.90;;;;;;;;;;5071392;28;20184;-87
2023/08/27 12:34:38;;;;;;;2.40;1.87;;;;;;;;;;5071001;28;20180;-84
2023/08/27 12:37:05;;;;;;;3.13;1.80;;;;;;;;;;5073415;28;20238;-86
2023/08/27 12:39:31;;;;;;;2.27;2.00;;;;;;;;;;5077105;28;20204;-87
2023/08/27 12:41:58;;;;;;;2.13;1.93;;;;;;;;;;5071865;28;20204;-87
2023/08/27 12:44:24;;;;;;;2.10;1.87;;;;;;;;;;5074872;28;20196;-86
2023/08/27 12:46:50;;;;;;;2.00;1.80;;;;;;;;;;5075531;28;20188;-88
2023/08/27 12:49:16;;;;;;;1.50;1.40;;;;;;;;;;5077060;28;20536;-86
2023/08/27 12:51:44;;;;;;;1.80;1.70;;;;;;;;;;5077014;28;20192;-87
2023/08/27 12:54:10;;;;;;;2.23;1.77;;;;;;;;;;5076463;28;20206;-88
2023/08/27 12:56:36;;;;;;;2.67;1.73;;;;;;;;;;5067925;28;20181;-84
2023/08/27 12:59:02;;;;;;;2.47;1.63;;;;;;;;;;5070142;28;20187;-85
2023/08/27 13:01:28;;;;;;;2.50;2.03;;;;;;;;;;5072679;28;20264;-86
2023/08/27 13:03:54;;;;;;;1.93;1.80;;;;;;;;;;5076122;28;20246;-87
2023/08/27 13:06:20;;;;;;;2.00;1.70;;;;;;;;;;5065453;28;20220;-85
2023/08/27 13:08:47;;;;;;;3.00;1.80;;;;;;;;;;5069317;28;20173;-85
2023/08/27 13:11:13;;;;;;;2.30;1.80;;;;;;;;;;5071048;28;20191;-86
2023/08/27 13:13:39;;;;;;;2.90;1.70;;;;;;;;;;5055915;28;20181;-85
2023/08/27 13:16:05;;;;;;;3.00;1.73;;;;;;;;;;5073011;28;20345;-84
2023/08/27 13:18:31;;;;;;;2.20;2.00;;;;;;;;;;5068105;28;20217;-83
2023/08/27 13:20:57;;;;;;;4.20;1.90;;;;;;;;;;5065025;28;20656;-83
2023/08/27 13:23:23;;;;;;;2.27;1.77;;;;;;;;;;5064904;28;20345;-82
2023/08/27 13:25:50;;;;;;;3.93;1.80;;;;;;;;;;5078494;28;20746;-87
2023/08/27 13:28:16;;;;;;;1.80;1.70;;;;;;;;;;5072672;28;20211;-87
2023/08/27 13:30:42;;;;;;;1.90;1.80;;;;;;;;;;5067282;28;20525;-88
2023/08/27 13:33:08;;;;;;;4.10;1.80;;;;;;;;;;5069136;28;20184;-86
2023/08/27 13:35:34;;;;;;;1.87;1.77;;;;;;;;;;5066059;28;20191;-80
2023/08/27 13:38:03;;;;;;;4.40;1.87;;;;;;;;;;5065476;28;20183;-79
2023/08/27 13:40:29;;;;;;;3.37;2.00;;;;;;;;;;5070835;28;20180;-79
2023/08/27 13:42:56;;;;;;;2.83;1.70;;;;;;;;;;5064916;28;20655;-81
2023/08/27 13:45:22;;;;;;;3.67;1.87;;;;;;;;;;5068994;28;20223;-80
2023/08/27 13:47:49;;;;;;;3.53;2.00;;;;;;;;;;5044384;28;20177;-78
2023/08/27 13:50:15;;;;;;;3.83;2.83;;;;;;;;;;5071596;28;20177;-87
2023/08/27 13:52:42;;;;;;;3.10;2.43;;;;;;;;;;5072191;28;20185;-88
2023/08/27 13:55:08;;;;;;;2.97;2.67;;;;;;;;;;5070347;28;20200;-85
2023/08/27 13:57:35;;;;;;;5.10;2.70;;;;;;;;;;5071295;28;20263;-87
2023/08/27 14:00:01;;;;;;;4.40;2.83;;;;;;;;;;5075095;28;20265;-87
2023/08/27 14:02:27;;;;;;;4.37;2.80;;;;;;;;;;5076800;28;20262;-87
2023/08/27 14:04:53;;;;;;;2.77;2.53;;;;;;;;;;5075547;28;20232;-89
2023/08/27 14:07:19;;;;;;;3.50;2.30;;;;;;;;;;5072792;28;20215;-88
2023/08/27 14:09:45;;;;;;;2.53;2.33;;;;;;;;;;5075393;28;20178;-91
2023/08/27 14:12:11;;;;;;;3.07;1.97;;;;;;;;;;5079270;28;20188;-89
2023/08/27 14:14:37;;;;;;;3.33;2.13;;;;;;;;;;5076308;28;20227;-93
2023/08/27 14:17:03;;;;;;;3.43;2.27;;;;;;;;;;5059233;28;20191;-89
2023/08/27 14:19:29;;;;;;;2.73;2.10;;;;;;;;;;5076213;28;20259;-91
2023/08/27 14:21:55;;;;;;;2.73;1.70;;;;;;;;;;5060962;28;20181;-90
2023/08/27 14:24:21;;;;;;;2.07;1.87;;;;;;;;;;5075634;28;20639;-88
2023/08/27 14:26:47;;;;;;;2.27;1.70;;;;;;;;;;5074833;28;20194;-85
2023/08/27 14:29:13;;;;;;;3.07;1.77;;;;;;;;;;5075235;28;20198;-90
2023/08/27 14:31:39;;;;;;;1.70;1.60;;;;;;;;;;5072563;28;20176;-86
2023/08/27 14:34:06;;;;;;;3.23;1.97;;;;;;;;;;5075459;28;20218;-88
2023/08/27 14:36:33;;;;;;;2.00;1.80;;;;;;;;;;5073897;28;20525;-88
2023/08/27 14:38:59;;;;;;;11.13;1.80;;;;;;;;;;5071967;28;20303;-88
2023/08/27 14:41:26;;;;;;;2.33;1.90;;;;;;;;;;5049605;28;20238;-88